KRFD/RFD METAR and TAF weather

Enter ICAO airport designator
Station Type Date Time Source
KRFD METAR 2018/05/22 12:54 UTC NOAA

KRFD 221254Z 00000KT 1 1/2SM BR OVC003 14/13 A3004 RMK AO2 SFC VIS 2 SLP174 T01390128


Station Type Date Time Source
KRFD Decoded METAR 2018/05/22 12:54 UTC NOAA

GREATER ROCKFORD AIRPORT, IL, United States (KRFD) 42-12N 89-06W 221M
May 22, 2018 - 08:54 AM EDT / 2018.05.22 1254 UTC
Wind: Calm:0
Visibility: 1 1/2 mile(s):0
Sky conditions: overcast
Weather: mist
Temperature: 57.0 F (13.9 C)
Dew Point: 55.0 F (12.8 C)
Relative Humidity: 93%
Pressure (altimeter): 30.04 in. Hg (1017 hPa)
ob: KRFD 221254Z 00000KT 1 1/2SM BR OVC003 14/13 A3004 RMK AO2 SFC VIS 2 SLP174 T01390128
cycle: 13

Station Type Date Time Source
KRFD TAF 2018/05/22 12:27 UTC NOAA

TAF KRFD 221123Z 2212/2312 35004KT 1SM BR OVC003
TEMPO 2212/2213 1/4SM FG VV001
FM221500 33005KT P6SM BKN008 OVC012
FM221700 34006KT P6SM BKN012
FM222100 35007KT P6SM BKN023
FM230000 05004KT P6SM SCT020
FM230600 13002KT 4SM BR SCT003 OVC012


Example: see airport list